Time;durP1;ratioP1;P1;durP2;ratioP2;P2;SDS_P1;SDS_P2;PMS_P1;PMS_P2;Temp;Humidity;BMP_temperature;BMP_pressure;BME280_temperature;BME280_humidity;BME280_pressure;Samples;Min_cycle;Max_cycle;Signal;HPM_P1;HPM_P2
2022/04/12 00:01:05;;;;;;;6.20;4.03;;;6.50;1.00;;;;;;4994087;28;20492;-77
2022/04/12 00:03:31;;;;;;;7.50;3.60;;;;;;;;;;4992153;28;20417;-76
2022/04/12 00:05:57;;;;;;;5.37;4.20;;;6.50;1.00;;;;;;4993255;28;20520;-76
2022/04/12 00:08:23;;;;;;;9.40;4.20;;;6.50;1.00;;;;;;4993446;28;20575;-75
2022/04/12 00:10:49;;;;;;;5.60;4.50;;;6.50;1.00;;;;;;4993624;28;20421;-75
2022/04/12 00:13:18;;;;;;;6.20;4.27;;;6.40;1.00;;;;;;5000702;28;20189;-76
2022/04/12 00:15:44;;;;;;;4.20;3.80;;;6.40;1.00;;;;;;4999568;28;20437;-76
2022/04/12 00:20:54;;;;;;;5.70;4.23;;;10.40;1.00;;;;;;4999974;28;21036;-75
2022/04/12 00:23:20;;;;;;;8.17;4.53;;;6.30;1.00;;;;;;4999689;28;20511;-76
2022/04/12 00:25:45;;;;;;;7.17;4.10;;;6.30;1.00;;;;;;4999843;28;20181;-76
2022/04/12 00:28:13;;;;;;;6.17;4.00;;;6.20;1.00;;;;;;4999939;28;20798;-76
2022/04/12 00:30:39;;;;;;;4.27;3.40;;;;;;;;;;4999689;28;20180;-76
2022/04/12 00:33:05;;;;;;;6.60;4.40;;;;;;;;;;4999791;28;20858;-81
2022/04/12 00:35:31;;;;;;;6.60;4.00;;;;;;;;;;4999186;28;20431;-81
2022/04/12 00:37:57;;;;;;;4.07;3.67;;;;;;;;;;4999465;28;20468;-81
2022/04/12 00:40:24;;;;;;;6.20;4.40;;;6.10;1.00;;;;;;4999831;28;20419;-81
2022/04/12 00:42:51;;;;;;;14.40;4.60;;;;;;;;;;4999658;28;20436;-81
2022/04/12 00:45:17;;;;;;;7.10;4.03;;;;;;;;;;4999261;28;20476;-81
2022/04/12 00:47:43;;;;;;;15.93;4.77;;;6.10;1.00;;;;;;4998763;28;20833;-81
2022/04/12 00:50:11;;;;;;;5.30;4.20;;;6.10;1.00;;;;;;5014514;28;20424;-81
2022/04/12 00:52:40;;;;;;;10.63;4.80;;;6.10;1.00;;;;;;4999778;28;20412;-81
2022/04/12 00:55:06;;;;;;;6.80;4.53;;;6.10;1.00;;;;;;4999497;28;20563;-81
2022/04/12 00:57:36;;;;;;;10.43;4.13;;;6.10;1.00;;;;;;5014311;28;20920;-81
2022/04/12 01:00:04;;;;;;;5.10;3.97;;;6.10;1.00;;;;;;4999399;28;20507;-81
2022/04/12 01:02:32;;;;;;;7.43;4.63;;;6.10;1.00;;;;;;4999880;28;20874;-81
2022/04/12 01:04:59;;;;;;;5.30;3.60;;;6.10;1.00;;;;;;4999241;28;20904;-81
2022/04/12 01:07:25;;;;;;;5.60;3.43;;;6.10;1.00;;;;;;4999187;28;20425;-81
2022/04/12 01:09:52;;;;;;;9.63;3.97;;;6.00;1.00;;;;;;4999244;28;20429;-81
2022/04/12 01:12:21;;;;;;;7.10;4.27;;;;;;;;;;5003013;28;20502;-81
2022/04/12 01:14:47;;;;;;;5.57;4.03;;;6.00;1.00;;;;;;4993891;28;20436;-81
2022/04/12 01:17:15;;;;;;;5.37;3.93;;;6.00;1.00;;;;;;4999487;28;20460;-81
2022/04/12 01:19:41;;;;;;;7.43;5.03;;;;;;;;;;4999580;28;20854;-81
2022/04/12 01:22:11;;;;;;;7.17;4.43;;;6.10;1.00;;;;;;4999455;28;20400;-81
2022/04/12 01:24:38;;;;;;;9.23;4.07;;;6.10;1.00;;;;;;4996685;28;20451;-81
2022/04/12 01:27:04;;;;;;;6.43;4.30;;;;;;;;;;4995949;28;20428;-81
2022/04/12 01:29:35;;;;;;;6.47;4.40;;;6.00;1.00;;;;;;4996026;28;20416;-81
2022/04/12 01:32:01;;;;;;;7.60;4.27;;;6.10;1.00;;;;;;4996371;28;20825;-76
2022/04/12 01:34:28;;;;;;;8.93;4.70;;;;;;;;;;4996353;28;20487;-76
2022/04/12 01:36:54;;;;;;;9.47;5.20;;;;;;;;;;4995703;28;20809;-76
2022/04/12 01:39:20;;;;;;;4.83;3.70;;;;;;;;;;4995997;28;20959;-76
2022/04/12 01:41:46;;;;;;;6.10;4.23;;;6.10;1.00;;;;;;4994645;28;20445;-76
2022/04/12 01:44:17;;;;;;;5.63;3.63;;;6.10;1.00;;;;;;4995433;28;20782;-76
2022/04/12 01:46:43;;;;;;;5.00;3.50;;;6.10;1.00;;;;;;4995602;28;20435;-76
2022/04/12 01:49:09;;;;;;;8.27;4.47;;;;;;;;;;4995774;28;20429;-81
2022/04/12 01:51:35;;;;;;;8.93;3.93;;;;;;;;;;4995715;28;20603;-81
2022/04/12 01:54:01;;;;;;;3.50;3.20;;;;;;;;;;4995774;28;20459;-81
2022/04/12 01:56:28;;;;;;;4.90;3.90;;;;;;;;;;4995532;28;20459;-81
2022/04/12 01:58:54;;;;;;;8.00;4.00;;;;;;;;;;4995848;28;20460;-81
2022/04/12 02:01:20;;;;;;;3.97;3.50;;;;;;;;;;4995626;28;20411;-81
2022/04/12 02:03:47;;;;;;;7.00;4.17;;;;;;;;;;4995936;28;20419;-76
2022/04/12 02:06:12;;;;;;;5.23;3.70;;;6.20;1.00;;;;;;4995263;28;20966;-76
2022/04/12 02:08:40;;;;;;;4.20;3.50;;;;;;;;;;4995585;28;20482;-76
2022/04/12 02:11:06;;;;;;;7.67;4.10;;;6.30;1.00;;;;;;4995549;28;20597;-76
2022/04/12 02:13:32;;;;;;;8.30;3.60;;;6.30;1.00;;;;;;4999646;28;20465;-76
2022/04/12 02:15:58;;;;;;;4.90;3.80;;;6.30;1.00;;;;;;4994855;28;20432;-76
2022/04/12 02:18:24;;;;;;;7.10;3.63;;;;;;;;;;4996219;28;20515;-82
2022/04/12 02:20:50;;;;;;;5.50;3.53;;;;;;;;;;4995095;28;20232;-81
2022/04/12 02:23:16;;;;;;;9.13;3.87;;;;;;;;;;4995180;28;20437;-81
2022/04/12 02:25:42;;;;;;;6.30;3.60;;;;;;;;;;4994760;28;20417;-81
2022/04/12 02:28:08;;;;;;;5.93;3.53;;;;;;;;;;4995075;28;20912;-81
2022/04/12 02:30:34;;;;;;;8.80;3.80;;;;;;;;;;4993765;28;20445;-81
2022/04/12 02:33:00;;;;;;;11.60;4.33;;;;;;;;;;4995447;28;20449;-81
2022/04/12 02:35:26;;;;;;;7.23;3.17;;;6.50;1.00;;;;;;4994902;28;20942;-81
2022/04/12 02:37:51;;;;;;;9.33;3.97;;;6.50;1.00;;;;;;4994461;28;20468;-81
2022/04/12 02:40:17;;;;;;;4.30;3.90;;;6.50;1.00;;;;;;5009968;28;20197;-81
2022/04/12 02:42:43;;;;;;;11.63;4.23;;;;;;;;;;4994541;28;20232;-81
2022/04/12 02:45:12;;;;;;;5.00;3.13;;;6.60;1.00;;;;;;4994637;28;20779;-81
2022/04/12 02:47:37;;;;;;;6.97;3.80;;;6.70;1.00;;;;;;4994895;28;20432;-81
2022/04/12 02:50:06;;;;;;;6.00;3.30;;;6.70;1.00;;;;;;4994182;28;20754;-82
2022/04/12 02:52:31;;;;;;;4.90;3.60;;;6.70;1.00;;;;;;4994773;28;20269;-81
2022/04/12 02:54:57;;;;;;;5.90;4.03;;;;;;;;;;4994286;28;20444;-81
2022/04/12 02:57:23;;;;;;;7.13;4.10;;;;;;;;;;4994182;28;20201;-81
2022/04/12 02:59:49;;;;;;;5.50;3.87;;;6.70;1.00;;;;;;4992949;28;20417;-81
2022/04/12 03:02:15;;;;;;;6.30;3.30;;;;;;;;;;4993402;28;20432;-81
2022/04/12 03:04:41;;;;;;;5.47;4.10;;;;;;;;;;4992748;28;20591;-76
2022/04/12 03:07:08;;;;;;;4.70;3.87;;;6.60;1.00;;;;;;4981475;28;20437;-76
2022/04/12 03:09:34;;;;;;;5.13;4.00;;;;;;;;;;4994323;28;21026;-76
2022/04/12 03:12:00;;;;;;;5.83;4.10;;;;;;;;;;4995631;28;20812;-76
2022/04/12 03:14:26;;;;;;;4.63;4.10;;;;;;;;;;5000239;28;20492;-76
2022/04/12 03:16:52;;;;;;;6.17;4.00;;;;;;;;;;4993704;28;20466;-76
2022/04/12 03:19:18;;;;;;;6.97;3.80;;;;;;;;;;4992943;28;20436;-76
2022/04/12 03:21:45;;;;;;;6.50;3.90;;;;;;;;;;4994021;28;20421;-76
2022/04/12 03:24:10;;;;;;;3.37;3.07;;;;;;;;;;4994049;28;20472;-76
2022/04/12 03:26:36;;;;;;;6.00;3.73;;;;;;;;;;4993964;28;20413;-76
2022/04/12 03:29:02;;;;;;;3.90;3.50;;;6.40;1.00;;;;;;4994041;28;20453;-76
2022/04/12 03:31:28;;;;;;;8.17;4.10;;;6.40;1.00;;;;;;4993638;28;20436;-76
2022/04/12 03:33:54;;;;;;;3.63;3.20;;;;;;;;;;4994207;28;20188;-76
2022/04/12 03:36:20;;;;;;;4.60;3.70;;;;;;;;;;4993674;28;20184;-76
2022/04/12 03:38:49;;;;;;;8.30;4.60;;;;;;;;;;4991396;28;20575;-76
2022/04/12 03:41:21;;;;;;;5.97;3.90;;;6.40;1.00;;;;;;4993605;28;20498;-76
2022/04/12 03:43:47;;;;;;;7.33;4.23;;;6.30;1.00;;;;;;4993409;28;20429;-76
2022/04/12 03:46:13;;;;;;;4.77;4.13;;;6.30;1.00;;;;;;4993726;28;20433;-76
2022/04/12 03:48:39;;;;;;;5.40;4.03;;;6.30;1.00;;;;;;5007900;28;20738;-76
2022/04/12 03:51:05;;;;;;;7.50;4.00;;;6.30;1.00;;;;;;4993902;28;20920;-76
2022/04/12 03:53:31;;;;;;;7.23;3.67;;;6.20;1.00;;;;;;4993707;28;20416;-76
2022/04/12 03:55:56;;;;;;;5.50;4.13;;;6.20;1.00;;;;;;4993240;28;20707;-76
2022/04/12 03:58:23;;;;;;;4.30;3.70;;;;;;;;;;4993370;28;20201;-76
2022/04/12 04:00:49;;;;;;;5.17;3.60;;;6.20;1.00;;;;;;4993582;28;20188;-76
2022/04/12 04:03:18;;;;;;;11.37;4.47;;;6.20;1.00;;;;;;4993640;28;20440;-76
2022/04/12 04:05:44;;;;;;;4.27;3.83;;;;;;;;;;4993448;28;20934;-76
2022/04/12 04:08:10;;;;;;;6.00;4.37;;;;;;;;;;4993357;28;20468;-76
2022/04/12 04:10:37;;;;;;;6.67;4.33;;;;;;;;;;4993294;28;20431;-76
2022/04/12 04:13:08;;;;;;;5.90;4.00;;;;;;;;;;4995331;28;20440;-76
2022/04/12 04:15:36;;;;;;;5.97;3.60;;;6.00;1.00;;;;;;4981186;28;20608;-76
2022/04/12 04:18:02;;;;;;;7.67;4.30;;;;;;;;;;4987190;28;20996;-76
2022/04/12 04:20:28;;;;;;;6.90;4.20;;;;;;;;;;4993851;28;20412;-77
2022/04/12 04:22:54;;;;;;;3.90;3.60;;;;;;;;;;4992852;28;20479;-76
2022/04/12 04:25:20;;;;;;;5.70;3.97;;;;;;;;;;4993422;28;20484;-77
2022/04/12 04:27:46;;;;;;;314.33;132.27;;;;;;;;;;4992942;28;20424;-76
2022/04/12 04:30:13;;;;;;;9.00;4.90;;;5.90;1.00;;;;;;4993235;28;20409;-76
2022/04/12 04:32:40;;;;;;;415.23;82.28;;;5.80;1.00;;;;;;4993156;28;20424;-76
2022/04/12 04:35:07;;;;;;;509.98;187.02;;;5.80;1.00;;;;;;4993333;28;20622;-77
2022/04/12 04:37:40;;;;;;;709.75;270.25;;;5.70;1.00;;;;;;4992479;28;20205;-76
2022/04/12 04:40:06;;;;;;;;;;;5.80;1.00;;;;;;4993604;28;20181;-76
2022/04/12 04:42:33;;;;;;;18.87;8.00;;;;;;;;;;4993041;28;20124;-76
2022/04/12 04:44:59;;;;;;;107.47;49.13;;;;;;;;;;4992712;28;20421;-76
2022/04/12 04:47:25;;;;;;;5.77;4.43;;;;;;;;;;4992690;28;20420;-76
2022/04/12 04:49:51;;;;;;;11.87;5.17;;;;;;;;;;4993313;28;20409;-81
2022/04/12 04:52:17;;;;;;;96.40;54.72;;;;;;;;;;4993110;28;20416;-81
2022/04/12 04:54:43;;;;;;;11.33;6.83;;;;;;;;;;4993048;28;20174;-80
2022/04/12 04:57:09;;;;;;;5.97;4.60;;;;;;;;;;4993245;28;20463;-82
2022/04/12 04:59:35;;;;;;;14.70;5.07;;;;;;;;;;4994413;28;20420;-80
2022/04/12 05:02:01;;;;;;;10.40;5.17;;;5.80;1.00;;;;;;4996694;28;20867;-81
2022/04/12 05:04:27;;;;;;;6.63;4.40;;;;;;;;;;4996334;28;20479;-71
2022/04/12 05:06:52;;;;;;;30.17;10.93;;;5.80;1.00;;;;;;4996506;28;20248;-71
2022/04/12 05:09:18;;;;;;;316.57;149.77;;;;;;;;;;4996456;28;20563;-71
2022/04/12 05:11:44;;;;;;;8.40;4.63;;;5.90;1.00;;;;;;4996414;28;20196;-71
2022/04/12 05:14:09;;;;;;;624.87;186.40;;;5.90;1.00;;;;;;5001121;28;21991;-71
2022/04/12 05:16:35;;;;;;;482.90;118.97;;;5.90;1.00;;;;;;4996414;28;20185;-71
2022/04/12 05:19:00;;;;;;;187.07;47.03;;;6.00;1.00;;;;;;4996587;28;20675;-73
2022/04/12 05:21:26;;;;;;;306.27;66.70;;;;;;;;;;4996297;28;20632;-74
2022/04/12 05:23:52;;;;;;;;;;;6.10;1.00;;;;;;4996073;28;20205;-74
2022/04/12 05:26:17;;;;;;;;;;;6.10;1.00;;;;;;4996856;28;20169;-78
2022/04/12 05:28:43;;;;;;;;;;;6.50;1.00;;;;;;4996718;28;20228;-77
2022/04/12 05:31:09;;;;;;;;;;;6.10;1.00;;;;;;4996667;28;20651;-77
2022/04/12 05:33:34;;;;;;;;;;;6.10;1.00;;;;;;4996610;28;20696;-77
2022/04/12 05:36:00;;;;;;;;;;;6.10;1.00;;;;;;4996517;28;20197;-81
2022/04/12 05:38:29;;;;;;;;;;;6.20;1.00;;;;;;4995974;28;20177;-83
2022/04/12 05:40:55;;;;;;;;;;;6.30;1.00;;;;;;4996117;28;20213;-82
2022/04/12 05:43:20;;;;;;;;;;;6.30;1.00;;;;;;4996323;28;20197;-82
2022/04/12 05:45:46;;;;;;;;;;;6.30;1.00;;;;;;4996211;28;20642;-82
2022/04/12 05:48:11;;;;;;;;;;;6.40;1.00;;;;;;4995975;28;20676;-82
2022/04/12 05:50:37;;;;;;;;;;;6.40;1.00;;;;;;4996214;28;20255;-82
2022/04/12 05:53:02;;;;;;;;;;;6.50;1.00;;;;;;4995080;28;20185;-82
2022/04/12 05:55:28;;;;;;;;;;;6.50;1.00;;;;;;4995907;28;20241;-82
2022/04/12 05:57:56;;;;;;;;;;;6.60;1.00;;;;;;4996443;28;20212;-82
2022/04/12 06:00:22;;;;;;;;;;;6.70;1.00;;;;;;4994650;28;20159;-82
2022/04/12 06:02:48;;;;;;;;;;;6.70;1.00;;;;;;5011157;28;20255;-82
2022/04/12 06:05:14;;;;;;;;;;;6.80;1.00;;;;;;4995959;28;20159;-82
2022/04/12 06:07:40;;;;;;;;;;;7.00;1.00;;;;;;4996190;28;20238;-82
2022/04/12 06:10:06;;;;;;;;;;;7.20;1.00;;;;;;5010760;28;20229;-82
2022/04/12 06:12:32;;;;;;;;;;;7.50;1.00;;;;;;4995445;28;20174;-82
2022/04/12 06:14:57;;;;;;;;;;;7.60;1.00;;;;;;4995867;28;20186;-82
2022/04/12 06:17:34;;;;;;;;;;;7.70;1.00;;;;;;4995568;28;20266;-82
2022/04/12 06:20:01;;;;;;;;;;;8.00;1.00;;;;;;4995663;28;20174;-82
2022/04/12 06:22:26;;;;;;;53.77;22.93;;;8.20;1.00;;;;;;5010185;28;20175;-81
2022/04/12 06:24:52;;;;;;;7.77;4.87;;;8.80;1.00;;;;;;4995409;28;20883;-82
2022/04/12 06:27:18;;;;;;;6.67;4.77;;;8.80;1.00;;;;;;4994006;28;20188;-81
2022/04/12 06:29:43;;;;;;;7.43;4.57;;;9.10;1.00;;;;;;4995035;28;20543;-82
2022/04/12 06:32:09;;;;;;;5.27;4.10;;;9.80;1.00;;;;;;4994297;28;20178;-82
2022/04/12 06:34:35;;;;;;;6.20;4.20;;;;;;;;;;4994969;28;20220;-81
2022/04/12 06:37:00;;;;;;;7.67;4.30;;;10.00;1.00;;;;;;4995010;28;20561;-77
2022/04/12 06:39:26;;;;;;;7.13;4.40;;;10.30;1.00;;;;;;4994694;28;20479;-77
2022/04/12 06:41:52;;;;;;;9.77;5.10;;;10.50;1.00;;;;;;4994878;28;20562;-77
2022/04/12 06:44:17;;;;;;;10.20;4.83;;;10.80;1.00;;;;;;4994224;28;20255;-77
2022/04/12 06:46:43;;;;;;;10.53;4.80;;;10.90;1.00;;;;;;4994741;28;20205;-77
2022/04/12 06:49:08;;;;;;;10.30;4.97;;;11.00;1.00;;;;;;4994607;28;20190;-77
2022/04/12 06:51:34;;;;;;;12.67;5.47;;;;;;;;;;4995545;28;20181;-77
2022/04/12 06:54:00;;;;;;;7.20;4.30;;;;;;;;;;4994324;28;20633;-77
2022/04/12 06:56:27;;;;;;;8.47;5.20;;;;;;;;;;4994507;28;20407;-77
2022/04/12 06:58:53;;;;;;;8.03;5.30;;;10.90;1.00;;;;;;4994198;28;20473;-77
2022/04/12 07:01:18;;;;;;;7.63;4.80;;;11.00;1.00;;;;;;4994274;28;20444;-77
2022/04/12 07:04:23;;;;;;;6.97;4.27;;;11.00;1.00;;;;;;4994158;28;20182;-77
2022/04/12 07:10:12;;;;;;;11.13;5.10;;;11.20;1.00;;;;;;4985657;28;20761;-80
2022/04/12 07:13:17;;;;;;;7.90;4.90;;;11.30;1.00;;;;;;4994050;28;20543;-81
2022/04/12 07:15:46;;;;;;;10.43;5.40;;;11.50;1.00;;;;;;4986661;28;20766;-81
2022/04/12 07:18:12;;;;;;;8.23;5.43;;;11.50;1.00;;;;;;4992221;28;20793;-81
2022/04/12 07:20:38;;;;;;;7.00;4.70;;;11.60;1.00;;;;;;4991360;28;20424;-82
2022/04/12 07:23:03;;;;;;;7.63;5.10;;;11.70;1.00;;;;;;4992486;28;20384;-81
2022/04/12 07:25:29;;;;;;;5.83;4.43;;;;;;;;;;4993669;28;20178;-81
2022/04/12 07:27:55;;;;;;;6.27;5.10;;;;;;;;;;4993627;28;20208;-82
2022/04/12 07:30:21;;;;;;;9.67;4.83;;;12.00;99.90;;;;;;4992263;28;20415;-81
2022/04/12 07:32:46;;;;;;;8.80;5.17;;;12.10;99.90;;;;;;4993318;28;20516;-81
2022/04/12 07:35:17;;;;;;;7.47;4.57;;;12.30;99.90;;;;;;4993465;28;20178;-79
2022/04/12 07:37:43;;;;;;;7.10;5.50;;;12.30;99.90;;;;;;4984359;28;20216;-81
2022/04/12 07:40:09;;;;;;;61.20;22.30;;;;;;;;;;4991972;28;20433;-82
2022/04/12 07:42:36;;;;;;;8.10;5.00;;;;;;;;;;4993813;28;20679;-82
2022/04/12 07:45:02;;;;;;;9.37;5.33;;;;;;;;;;4993237;28;20416;-81
2022/04/12 07:47:28;;;;;;;9.03;5.00;;;;;;;;;;4993206;28;20490;-82
2022/04/12 07:49:54;;;;;;;6.40;5.10;;;;;;;;;;4992798;28;20829;-82
2022/04/12 07:52:20;;;;;;;7.57;4.50;;;12.90;99.90;;;;;;4993095;28;20435;-71
2022/04/12 07:54:46;;;;;;;9.37;5.00;;;13.10;99.90;;;;;;4993026;28;20461;-71
2022/04/12 07:57:11;;;;;;;7.33;4.90;;;13.10;99.90;;;;;;4992932;28;20545;-71
2022/04/12 07:59:38;;;;;;;7.63;4.40;;;13.20;99.90;;;;;;4993480;28;20181;-71
2022/04/12 08:02:03;;;;;;;9.17;4.90;;;13.20;99.90;;;;;;4993065;28;20188;-71
2022/04/12 08:04:29;;;;;;;7.80;4.83;;;13.40;99.90;;;;;;4992721;28;20403;-71
2022/04/12 08:06:55;;;;;;;5.20;4.17;;;13.50;99.90;;;;;;4993736;28;20482;-71
2022/04/12 08:09:20;;;;;;;13.37;6.80;;;13.70;99.90;;;;;;4993105;28;20272;-75
2022/04/12 08:11:46;;;;;;;6.93;4.97;;;13.90;99.90;;;;;;4992430;28;20178;-75
2022/04/12 08:14:11;;;;;;;7.23;4.53;;;14.00;99.90;;;;;;5005356;28;20663;-75
2022/04/12 08:16:37;;;;;;;8.30;5.40;;;14.20;99.90;;;;;;4989600;28;20607;-75
2022/04/12 08:19:03;;;;;;;6.03;4.10;;;;;;;;;;4990966;28;20608;-76
2022/04/12 08:21:39;;;;;;;8.83;4.60;;;14.50;99.90;;;;;;4984324;28;20213;-81
2022/04/12 08:24:06;;;;;;;9.10;5.60;;;14.70;99.90;;;;;;4992806;28;20420;-84
2022/04/12 08:26:31;;;;;;;7.97;4.70;;;14.90;99.90;;;;;;4993714;28;20417;-84
2022/04/12 08:28:57;;;;;;;10.63;4.80;;;15.10;99.90;;;;;;4993639;28;20456;-84
2022/04/12 08:31:23;;;;;;;13.87;4.53;;;15.30;99.90;;;;;;4993474;28;20169;-84
2022/04/12 08:33:49;;;;;;;10.40;4.50;;;15.30;99.90;;;;;;4993919;28;20544;-84
2022/04/12 08:36:16;;;;;;;7.10;4.37;;;;;;;;;;4997186;28;20188;-80
2022/04/12 08:38:43;;;;;;;10.53;4.50;;;15.80;99.90;;;;;;4995793;28;20421;-78
2022/04/12 08:41:10;;;;;;;72.80;24.40;;;16.00;99.90;;;;;;4988656;28;20431;-82
2022/04/12 08:43:39;;;;;;;10.57;4.67;;;16.00;99.90;;;;;;4996701;28;20421;-79
2022/04/12 08:46:06;;;;;;;9.40;4.47;;;16.10;99.90;;;;;;4996610;28;20421;-79
2022/04/12 08:48:33;;;;;;;7.00;4.30;;;16.10;99.90;;;;;;5011693;28;20483;-79
2022/04/12 08:51:00;;;;;;;5.93;4.13;;;16.20;99.90;;;;;;4996811;28;20484;-77
2022/04/12 08:53:27;;;;;;;7.47;4.37;;;16.20;99.90;;;;;;4996467;28;20428;-78
2022/04/12 08:55:53;;;;;;;7.37;4.00;;;;;;;;;;4996516;28;20893;-79
2022/04/12 08:58:19;;;;;;;8.03;4.30;;;;;;;;;;4996340;28;20656;-80
2022/04/12 09:00:45;;;;;;;12.70;4.43;;;;;;;;;;4995842;28;20442;-83
2022/04/12 09:03:14;;;;;;;11.90;4.60;;;16.90;99.90;;;;;;4996841;28;20470;-80
2022/04/12 09:05:40;;;;;;;9.97;4.30;;;16.90;99.90;;;;;;4996287;28;20481;-83
2022/04/12 09:08:27;;;;;;;9.33;4.10;;;16.90;99.90;;;;;;4996824;28;20469;-75
2022/04/12 09:11:05;;;;;;;6.03;3.87;;;16.90;99.90;;;;;;4995933;28;20587;-76
2022/04/12 09:13:36;;;;;;;6.80;3.50;;;17.10;99.90;;;;;;4998428;28;20432;-75
2022/04/12 09:16:07;;;;;;;6.13;4.10;;;17.10;99.90;;;;;;4995221;28;20980;-75
2022/04/12 09:18:35;;;;;;;7.60;3.57;;;17.40;99.90;;;;;;4995154;28;20430;-75
2022/04/12 09:21:18;;;;;;;5.30;3.80;;;17.60;99.90;;;;;;4991186;28;20505;-75
2022/04/12 09:23:47;;;;;;;9.23;3.20;;;17.60;99.90;;;;;;4996475;28;20426;-83
2022/04/12 09:26:25;;;;;;;5.57;3.70;;;17.80;99.90;;;;;;4996156;28;20548;-83
2022/04/12 09:28:56;;;;;;;6.23;3.90;;;17.90;99.90;;;;;;4994128;28;20818;-82
2022/04/12 09:31:23;;;;;;;5.67;3.40;;;18.00;99.90;;;;;;4996141;28;20423;-81
2022/04/12 09:33:51;;;;;;;12.10;4.50;;;18.10;99.90;;;;;;4995759;28;20797;-82
2022/04/12 09:36:24;;;;;;;6.80;3.63;;;18.10;99.90;;;;;;5009484;28;20489;-82
2022/04/12 09:42:54;;;;;;;9.77;3.43;;;18.60;99.90;;;;;;4991515;28;20431;-80
2022/04/12 09:48:46;;;;;;;5.20;3.20;;;18.60;99.90;;;;;;4996499;28;20463;-80
2022/04/12 09:51:36;;;;;;;5.60;3.60;;;18.70;99.90;;;;;;5011693;28;20451;-78
2022/04/12 09:54:07;;;;;;;8.37;3.37;;;18.70;99.90;;;;;;4996755;28;20396;-75
2022/04/12 09:56:56;;;;;;;6.73;3.37;;;18.90;99.90;;;;;;4996235;28;20398;-76
2022/04/12 09:59:32;;;;;;;3.90;2.97;;;19.00;99.90;;;;;;4992265;28;20491;-75
2022/04/12 10:02:47;;;;;;;6.50;3.20;;;19.10;99.90;;;;;;4996069;28;20426;-75
2022/04/12 10:05:25;;;;;;;3.80;3.13;;;19.20;99.90;;;;;;4995968;28;20432;-75
2022/04/12 10:08:02;;;;;;;2.87;2.67;;;19.40;99.90;;;;;;4996825;28;20423;-80
2022/04/12 10:10:28;;;;;;;6.00;2.70;;;19.40;99.90;;;;;;4983550;28;20409;-80
2022/04/12 10:13:06;;;;;;;6.00;2.83;;;19.40;99.90;;;;;;4995985;28;20833;-80
2022/04/12 10:18:49;;;;;;;9.10;3.97;;;19.60;99.90;;;;;;4993593;28;20464;-80
2022/04/12 10:21:16;;;;;;;4.63;3.10;;;19.60;99.90;;;;;;4995093;28;20503;-80
2022/04/12 10:23:50;;;;;;;4.43;2.70;;;19.50;99.90;;;;;;4995637;28;20471;-80
2022/04/12 10:26:20;;;;;;;5.70;2.50;;;19.60;99.90;;;;;;4993607;28;20764;-82
2022/04/12 10:28:57;;;;;;;2.47;2.27;;;19.60;99.90;;;;;;4994019;28;20453;-80
2022/04/12 10:31:30;;;;;;;7.90;2.20;;;19.60;99.90;;;;;;4994974;28;20418;-79
2022/04/12 10:34:09;;;;;;;6.30;2.53;;;19.70;99.90;;;;;;5010195;28;20417;-79
2022/04/12 10:37:00;;;;;;;3.00;2.17;;;19.90;99.90;;;;;;4994430;28;20610;-79
2022/04/12 10:39:55;;;;;;;5.33;2.40;;;20.00;99.90;;;;;;4990404;28;20529;-75
2022/04/12 10:42:25;;;;;;;5.27;2.37;;;;;;;;;;4994718;28;20425;-74
2022/04/12 10:44:53;;;;;;;4.37;2.33;;;20.10;99.90;;;;;;4993982;28;20433;-76
2022/04/12 10:47:27;;;;;;;5.50;2.70;;;20.10;99.90;;;;;;4994327;28;20512;-75
2022/04/12 10:49:55;;;;;;;3.43;1.90;;;20.30;99.90;;;;;;4992953;28;20429;-75
2022/04/12 10:52:36;;;;;;;4.40;2.00;;;20.40;99.90;;;;;;4994891;28;20450;-81
2022/04/12 10:55:13;;;;;;;2.33;1.80;;;20.50;99.90;;;;;;4985562;28;20418;-84
2022/04/12 10:57:39;;;;;;;3.73;2.20;;;20.60;99.90;;;;;;4993705;28;20928;-82
2022/04/12 11:00:14;;;;;;;1.83;1.70;;;20.60;99.90;;;;;;4994687;28;20435;-80
2022/04/12 11:02:45;;;;;;;3.67;1.50;;;20.80;99.90;;;;;;4992216;28;20811;-80
2022/04/12 11:05:32;;;;;;;5.33;1.83;;;20.90;99.90;;;;;;4994042;28;20922;-80
2022/04/12 11:07:59;;;;;;;4.30;1.50;;;20.90;99.90;;;;;;4994132;28;20773;-76
2022/04/12 11:10:25;;;;;;;2.73;1.70;;;;;;;;;;4994331;28;20420;-75
2022/04/12 11:13:04;;;;;;;2.60;1.93;;;21.10;99.90;;;;;;5000429;28;20477;-75
2022/04/12 11:15:31;;;;;;;2.40;1.90;;;;;;;;;;5009045;28;20522;-75
2022/04/12 11:18:14;;;;;;;1.80;1.70;;;21.30;99.90;;;;;;4993644;28;20455;-75
2022/04/12 11:20:43;;;;;;;2.53;1.50;;;21.40;99.90;;;;;;4982226;28;20420;-75
2022/04/12 11:23:12;;;;;;;3.80;1.83;;;21.50;99.90;;;;;;4994346;28;20412;-81
2022/04/12 11:25:51;;;;;;;3.13;1.60;;;21.60;99.90;;;;;;4993715;28;20934;-81
2022/04/12 11:28:22;;;;;;;3.93;1.60;;;21.70;99.90;;;;;;4993351;28;20939;-81
2022/04/12 11:30:58;;;;;;;6.93;2.23;;;21.80;99.90;;;;;;4993850;28;20954;-81
2022/04/12 11:33:25;;;;;;;2.20;2.00;;;;;;;;;;4993952;28;20860;-81
2022/04/12 11:35:52;;;;;;;3.30;1.40;;;22.00;99.90;;;;;;4993594;28;20420;-81
2022/04/12 11:38:20;;;;;;;2.53;1.43;;;22.20;99.90;;;;;;5001969;28;20973;-81
2022/04/12 11:40:45;;;;;;;3.63;1.80;;;22.40;99.90;;;;;;4993762;28;20413;-81
2022/04/12 11:43:25;;;;;;;7.90;2.30;;;22.50;99.90;;;;;;4993500;28;20432;-80
2022/04/12 11:45:57;;;;;;;3.30;1.70;;;22.50;99.90;;;;;;4993511;28;20178;-81
2022/04/12 11:51:47;;;;;;;5.13;1.70;;;22.70;99.90;;;;;;4994183;28;20477;-79
2022/04/12 11:54:32;;;;;;;5.20;1.97;;;22.80;99.90;;;;;;4994217;28;20423;-79
2022/04/12 11:57:20;;;;;;;2.67;1.40;;;22.90;99.90;;;;;;4994020;28;20438;-75
2022/04/12 11:59:50;;;;;;;4.40;1.60;;;23.10;99.90;;;;;;4994406;28;20521;-75
2022/04/12 12:02:29;;;;;;;1.77;1.47;;;23.10;99.90;;;;;;4994469;28;20419;-75
2022/04/12 12:04:58;;;;;;;6.70;1.73;;;23.20;99.90;;;;;;5008877;28;20431;-75
2022/04/12 12:07:25;;;;;;;2.50;1.33;;;23.10;99.90;;;;;;4993464;28;20427;-74
2022/04/12 12:10:00;;;;;;;1.97;1.40;;;23.20;99.90;;;;;;4993712;28;20502;-75
2022/04/12 12:12:39;;;;;;;1.50;1.40;;;23.10;99.90;;;;;;4989431;28;20438;-75
2022/04/12 12:15:16;;;;;;;5.30;1.70;;;23.20;99.90;;;;;;4996969;28;20435;-75
2022/04/12 12:17:49;;;;;;;1.67;1.57;;;23.40;99.90;;;;;;4993422;28;20525;-75
2022/04/12 12:20:47;;;;;;;5.50;3.00;;;23.40;99.90;;;;;;4994432;28;20913;-74
2022/04/12 12:23:13;;;;;;;16.00;5.20;;;23.30;99.90;;;;;;4994048;28;20487;-75
2022/04/12 12:25:39;;;;;;;7.93;2.13;;;23.30;99.90;;;;;;4994541;28;20419;-74
2022/04/12 12:28:16;;;;;;;3.90;2.03;;;23.30;99.90;;;;;;4993834;28;20542;-75
2022/04/12 12:30:43;;;;;;;6.40;2.10;;;;;;;;;;5008705;28;20192;-75
2022/04/12 12:33:44;;;;;;;2.30;1.70;;;23.40;99.90;;;;;;4993829;28;20435;-75
2022/04/12 12:36:35;;;;;;;9.50;2.20;;;23.60;99.90;;;;;;4986212;28;20442;-75
2022/04/12 12:39:29;;;;;;;1.30;1.20;;;;;;;;;;4992045;28;20514;-78
2022/04/12 12:45:30;;;;;;;1.53;1.43;;;23.60;99.90;;;;;;4993260;28;20555;-78
2022/04/12 12:48:30;;;;;;;3.73;2.03;;;23.50;99.90;;;;;;4993595;28;20624;-78
2022/04/12 12:51:29;;;;;;;1.87;1.40;;;23.50;99.90;;;;;;4993817;28;20405;-78
2022/04/12 12:54:08;;;;;;;44.87;6.83;;;;;;;;;;4989061;28;20536;-77
2022/04/12 12:56:36;;;;;;;9.60;1.80;;;23.40;99.90;;;;;;4993187;28;20894;-72
2022/04/12 12:59:19;;;;;;;2.07;1.60;;;23.50;99.90;;;;;;4993664;28;20551;-74
2022/04/12 13:01:47;;;;;;;14.20;3.90;;;23.60;99.90;;;;;;4979801;28;20454;-72
2022/04/12 13:04:31;;;;;;;6.00;1.70;;;23.80;99.90;;;;;;4991739;28;20876;-72
2022/04/12 13:07:07;;;;;;;3.43;1.63;;;23.90;99.90;;;;;;4988398;28;20990;-72
2022/04/12 13:09:44;;;;;;;3.30;1.60;;;24.20;99.90;;;;;;4993342;28;20406;-71
2022/04/12 13:12:11;;;;;;;3.93;1.80;;;24.30;99.90;;;;;;4995597;28;20434;-72
2022/04/12 13:14:38;;;;;;;2.87;1.23;;;24.50;99.90;;;;;;4996455;28;20434;-71
2022/04/12 13:17:05;;;;;;;2.20;1.43;;;24.60;99.90;;;;;;4993134;28;20422;-71
2022/04/12 13:19:32;;;;;;;4.87;1.83;;;24.70;99.90;;;;;;4993119;28;20414;-72
2022/04/12 13:21:59;;;;;;;7.43;1.90;;;24.80;99.90;;;;;;4996551;28;20410;-72
2022/04/12 13:24:26;;;;;;;1.70;1.23;;;24.80;99.90;;;;;;4996693;28;20426;-73
2022/04/12 13:26:54;;;;;;;3.43;1.27;;;24.90;99.90;;;;;;4994890;28;20729;-73
2022/04/12 13:29:21;;;;;;;1.50;1.40;;;24.90;99.90;;;;;;4996954;28;20533;-73
2022/04/12 13:31:47;;;;;;;3.53;1.80;;;24.90;99.90;;;;;;4996924;28;20419;-72
2022/04/12 13:34:18;;;;;;;2.30;1.50;;;24.90;99.90;;;;;;4996437;28;20430;-72
2022/04/12 13:36:48;;;;;;;2.20;1.60;;;24.80;99.90;;;;;;4996695;28;20468;-74
2022/04/12 13:39:14;;;;;;;3.53;1.80;;;24.80;99.90;;;;;;4987747;28;20923;-73
2022/04/12 13:41:41;;;;;;;1.90;1.57;;;24.80;99.90;;;;;;4996555;28;20410;-72
2022/04/12 13:44:08;;;;;;;6.30;2.07;;;;;;;;;;4995840;28;20791;-72
2022/04/12 13:46:34;;;;;;;3.47;1.60;;;24.80;99.90;;;;;;4994820;28;20423;-72
2022/04/12 13:49:00;;;;;;;2.50;1.90;;;24.60;99.90;;;;;;4994964;28;20426;-72
2022/04/12 13:51:26;;;;;;;5.73;2.20;;;25.00;99.90;;;;;;4995524;28;20784;-72
2022/04/12 13:53:52;;;;;;;3.93;1.70;;;25.10;99.90;;;;;;4995243;28;20188;-87
2022/04/12 13:56:18;;;;;;;2.20;1.77;;;;;;;;;;4995622;28;20191;-90
2022/04/12 13:58:44;;;;;;;1.97;1.60;;;;;;;;;;4994522;28;20603;-88
2022/04/12 14:01:09;;;;;;;1.97;1.50;;;25.60;99.90;;;;;;4995112;28;21072;-85